createdAt,value
2018-02-17T00:00:05.180Z,986.84
2018-02-17T00:01:05.526Z,986.90
2018-02-17T00:02:05.415Z,986.93
2018-02-17T00:03:04.927Z,986.90
2018-02-17T00:04:05.661Z,986.87
2018-02-17T00:05:05.814Z,986.93
2018-02-17T00:06:05.466Z,986.71
2018-02-17T00:07:05.712Z,986.87
2018-02-17T00:08:05.549Z,986.71
2018-02-17T00:09:05.434Z,986.82
2018-02-17T00:10:05.923Z,986.60
2018-02-17T00:11:05.876Z,986.73
2018-02-17T00:12:05.864Z,986.57
2018-02-17T00:13:05.218Z,986.65
2018-02-17T00:14:05.306Z,986.55
2018-02-17T00:15:05.192Z,986.47
2018-02-17T00:16:05.961Z,986.57
2018-02-17T00:17:05.167Z,986.44
2018-02-17T00:18:06.721Z,986.53
2018-02-17T00:19:05.278Z,986.57
2018-02-17T00:20:05.121Z,986.44
2018-02-17T00:21:05.777Z,986.60
2018-02-17T00:22:05.728Z,986.39
2018-02-17T00:23:05.828Z,986.44
2018-02-17T00:24:05.126Z,986.36
2018-02-17T00:25:05.472Z,986.28
2018-02-17T00:26:05.218Z,986.33
2018-02-17T00:27:05.113Z,986.45
2018-02-17T00:28:05.204Z,986.34
2018-02-17T00:29:04.921Z,986.42
2018-02-17T00:30:05.670Z,986.31
2018-02-17T00:31:05.644Z,986.28
2018-02-17T00:32:05.601Z,986.31
2018-02-17T00:33:05.846Z,986.25
2018-02-17T00:34:05.845Z,986.31
2018-02-17T00:35:05.599Z,986.58
2018-02-17T00:36:06.010Z,986.37
2018-02-17T00:37:05.961Z,986.28
2018-02-17T00:38:05.401Z,986.53
2018-02-17T00:39:05.951Z,986.26
2018-02-17T00:40:05.558Z,986.45
2018-02-17T00:41:05.089Z,986.37
2018-02-17T00:42:05.285Z,986.37
2018-02-17T00:43:05.310Z,986.34
2018-02-17T00:44:05.772Z,986.48
2018-02-17T00:45:05.892Z,986.42
2018-02-17T00:46:06.260Z,986.51
2018-02-17T00:47:06.067Z,986.51
2018-02-17T00:48:06.011Z,986.45
2018-02-17T00:49:05.648Z,986.34
2018-02-17T00:50:05.553Z,986.45
2018-02-17T00:51:05.048Z,986.51
2018-02-17T00:52:05.113Z,986.48
2018-02-17T00:53:05.531Z,986.51
2018-02-17T00:54:05.695Z,986.40
2018-02-17T00:55:05.696Z,986.34
2018-02-17T00:56:05.510Z,986.51
2018-02-17T00:57:04.918Z,986.37
2018-02-17T00:58:05.820Z,986.34
2018-02-17T00:59:06.400Z,986.40
2018-02-17T01:00:05.820Z,986.34
2018-02-17T01:01:05.330Z,986.43
2018-02-17T01:02:05.183Z,986.29
2018-02-17T01:03:05.218Z,986.29
2018-02-17T01:04:05.204Z,986.46
2018-02-17T01:05:04.992Z,986.40
2018-02-17T01:06:05.866Z,986.34
2018-02-17T01:07:05.108Z,986.34
2018-02-17T01:08:05.566Z,986.43
2018-02-17T01:09:10.318Z,986.40
2018-02-17T01:10:05.231Z,986.46
2018-02-17T01:11:05.131Z,986.29
2018-02-17T01:12:10.150Z,986.43
2018-02-17T01:13:05.395Z,986.32
2018-02-17T01:14:05.331Z,986.40
2018-02-17T01:15:05.651Z,986.29
2018-02-17T01:16:06.384Z,986.26
2018-02-17T01:17:05.577Z,986.29
2018-02-17T01:18:10.817Z,986.18
2018-02-17T01:19:05.554Z,986.07
2018-02-17T01:20:05.709Z,986.26
2018-02-17T01:21:05.323Z,986.18
2018-02-17T01:22:05.530Z,986.13
2018-02-17T01:23:05.639Z,986.18
2018-02-17T01:24:05.820Z,986.15
2018-02-17T01:25:06.737Z,986.13
2018-02-17T01:26:05.871Z,986.07
2018-02-17T01:27:05.586Z,985.93
2018-02-17T01:28:05.363Z,985.96
2018-02-17T01:29:05.143Z,985.99
2018-02-17T01:30:05.871Z,986.07
2018-02-17T01:31:05.500Z,986.10
2018-02-17T01:32:06.090Z,986.10
2018-02-17T01:33:05.065Z,986.13
2018-02-17T01:34:05.805Z,986.19
2018-02-17T01:35:05.512Z,986.13
2018-02-17T01:36:10.531Z,986.07
2018-02-17T01:37:05.497Z,986.13
2018-02-17T01:38:05.084Z,986.19
2018-02-17T01:39:05.942Z,986.19
2018-02-17T01:40:05.237Z,986.13
2018-02-17T01:41:05.315Z,986.10
2018-02-17T01:42:05.351Z,986.30
2018-02-17T01:43:05.368Z,986.16
2018-02-17T01:44:04.996Z,986.30
2018-02-17T01:45:06.652Z,986.13
2018-02-17T01:46:05.628Z,986.02
2018-02-17T01:47:05.523Z,985.91
2018-02-17T01:48:05.097Z,985.91
2018-02-17T01:49:05.130Z,985.91
2018-02-17T01:50:06.019Z,985.94
2018-02-17T01:51:05.851Z,985.91
2018-02-17T01:52:06.066Z,985.94
2018-02-17T01:53:06.041Z,986.08
2018-02-17T01:54:05.575Z,986.10
2018-02-17T01:55:05.665Z,986.05
2018-02-17T01:56:05.383Z,986.22
2018-02-17T01:57:05.122Z,986.11
2018-02-17T01:58:05.864Z,985.97
2018-02-17T01:59:06.524Z,986.19
2018-02-17T02:00:05.581Z,986.11
2018-02-17T02:01:05.345Z,986.19
2018-02-17T02:02:05.475Z,986.11
2018-02-17T02:03:05.465Z,986.08
2018-02-17T02:04:05.916Z,986.08
2018-02-17T02:05:05.946Z,986.11
2018-02-17T02:06:05.749Z,986.02
2018-02-17T02:07:05.729Z,986.05
2018-02-17T02:08:05.840Z,986.02
2018-02-17T02:09:05.225Z,986.00
2018-02-17T02:10:05.190Z,985.86
2018-02-17T02:11:05.747Z,985.94
2018-02-17T02:12:05.585Z,986.00
2018-02-17T02:13:05.502Z,985.97
2018-02-17T02:14:05.821Z,985.86
2018-02-17T02:15:05.298Z,985.78
2018-02-17T02:16:05.182Z,985.75
2018-02-17T02:17:05.029Z,985.86
2018-02-17T02:18:05.076Z,985.83
2018-02-17T02:19:06.128Z,985.72
2018-02-17T02:20:05.158Z,985.81
2018-02-17T02:21:05.736Z,985.78
2018-02-17T02:22:05.825Z,985.75
2018-02-17T02:23:05.712Z,985.64
2018-02-17T02:24:05.379Z,985.64
2018-02-17T02:25:05.189Z,985.70
2018-02-17T02:26:05.259Z,985.61
2018-02-17T02:27:05.887Z,985.72
2018-02-17T02:28:05.359Z,985.64
2018-02-17T02:29:05.401Z,985.64
2018-02-17T02:30:05.365Z,985.53
2018-02-17T02:31:05.550Z,985.61
2018-02-17T02:32:05.373Z,985.53
2018-02-17T02:33:05.680Z,985.62
2018-02-17T02:34:05.145Z,985.56
2018-02-17T02:35:05.054Z,985.59
2018-02-17T02:36:05.401Z,985.51
2018-02-17T02:37:05.962Z,985.53
2018-02-17T02:38:05.537Z,985.53
2018-02-17T02:39:05.348Z,985.56
2018-02-17T02:40:05.627Z,985.56
2018-02-17T02:41:05.575Z,985.64
2018-02-17T02:42:05.644Z,985.51
2018-02-17T02:43:05.839Z,985.51
2018-02-17T02:44:05.878Z,985.56
2018-02-17T02:45:07.959Z,985.62
2018-02-17T02:46:06.205Z,985.53
2018-02-17T02:47:05.621Z,985.51
2018-02-17T02:48:05.571Z,985.40
2018-02-17T02:49:05.248Z,985.37
2018-02-17T02:50:05.880Z,985.42
2018-02-17T02:51:05.976Z,985.54
2018-02-17T02:52:05.573Z,985.43
2018-02-17T02:53:05.168Z,985.43
2018-02-17T02:54:05.917Z,985.51
2018-02-17T02:55:05.235Z,985.48
2018-02-17T02:56:05.178Z,985.37
2018-02-17T02:57:04.964Z,985.46
2018-02-17T02:58:05.960Z,985.43
2018-02-17T02:59:05.889Z,985.37
2018-02-17T03:00:05.751Z,985.40
2018-02-17T03:01:05.809Z,985.24
2018-02-17T03:02:05.431Z,985.30
2018-02-17T03:03:05.056Z,985.22
2018-02-17T03:04:05.693Z,985.25
2018-02-17T03:05:10.837Z,985.11
2018-02-17T03:06:05.907Z,985.16
2018-02-17T03:07:05.429Z,985.22
2018-02-17T03:08:05.460Z,985.14
2018-02-17T03:09:05.452Z,985.22
2018-02-17T03:10:10.566Z,985.14
2018-02-17T03:11:05.358Z,985.16
2018-02-17T03:12:04.979Z,985.05
2018-02-17T03:13:05.382Z,985.03
2018-02-17T03:14:05.472Z,985.05
2018-02-17T03:15:05.702Z,984.89
2018-02-17T03:16:05.387Z,985.08
2018-02-17T03:17:05.617Z,985.03
2018-02-17T03:18:05.325Z,984.94
2018-02-17T03:19:05.949Z,984.97
2018-02-17T03:20:05.847Z,985.03
2018-02-17T03:21:05.979Z,984.86
2018-02-17T03:22:05.894Z,985.03
2018-02-17T03:23:05.725Z,985.00
2018-02-17T03:24:05.471Z,984.89
2018-02-17T03:25:05.830Z,985.00
2018-02-17T03:26:07.097Z,985.03
2018-02-17T03:27:05.342Z,984.94
2018-02-17T03:28:05.721Z,984.97
2018-02-17T03:29:05.777Z,984.92
2018-02-17T03:30:05.724Z,985.08
2018-02-17T03:31:05.162Z,984.83
2018-02-17T03:32:11.004Z,984.78
2018-02-17T03:33:05.369Z,984.89
2018-02-17T03:34:05.344Z,985.03
2018-02-17T03:35:05.349Z,984.94
2018-02-17T03:36:05.104Z,984.83
2018-02-17T03:37:05.619Z,984.89
2018-02-17T03:38:05.481Z,984.94
2018-02-17T03:39:05.876Z,984.97
2018-02-17T03:40:05.129Z,985.00
2018-02-17T03:41:06.105Z,984.83
2018-02-17T03:42:05.258Z,984.83
2018-02-17T03:43:05.778Z,984.97
2018-02-17T03:44:05.987Z,984.89
2018-02-17T03:45:05.555Z,984.94
2018-02-17T03:46:05.612Z,984.78
2018-02-17T03:47:05.615Z,985.03
2018-02-17T03:48:05.328Z,985.00
2018-02-17T03:49:10.067Z,985.14
2018-02-17T03:50:05.047Z,985.03
2018-02-17T03:51:05.107Z,984.94
2018-02-17T03:52:05.290Z,984.97
2018-02-17T03:53:05.520Z,984.97
2018-02-17T03:54:05.373Z,985.00
2018-02-17T03:55:05.300Z,985.03
2018-02-17T03:56:05.130Z,985.11
2018-02-17T03:57:06.055Z,985.00
2018-02-17T03:58:10.791Z,985.00
2018-02-17T03:59:04.986Z,984.92
2018-02-17T04:00:05.050Z,985.11
2018-02-17T04:01:06.259Z,984.89
2018-02-17T04:02:05.374Z,984.83
2018-02-17T04:03:10.332Z,984.89
2018-02-17T04:04:05.315Z,984.92
2018-02-17T04:05:05.776Z,984.94
2018-02-17T04:06:05.779Z,985.03
2018-02-17T04:07:05.466Z,985.03
2018-02-17T04:08:05.762Z,985.05
2018-02-17T04:09:05.243Z,985.00
2018-02-17T04:10:05.136Z,984.92
2018-02-17T04:11:05.074Z,985.03
2018-02-17T04:12:05.858Z,984.86
2018-02-17T04:13:05.664Z,984.97
2018-02-17T04:14:05.846Z,984.92
2018-02-17T04:15:05.986Z,984.94
2018-02-17T04:16:05.607Z,984.97
2018-02-17T04:17:05.716Z,984.97
2018-02-17T04:18:05.585Z,985.11
2018-02-17T04:19:05.444Z,984.86
2018-02-17T04:20:05.187Z,985.00
2018-02-17T04:21:05.619Z,984.97
2018-02-17T04:22:05.421Z,985.00
2018-02-17T04:23:05.592Z,985.09
2018-02-17T04:24:05.416Z,985.06
2018-02-17T04:25:05.579Z,984.81
2018-02-17T04:26:05.006Z,985.14
2018-02-17T04:27:04.967Z,984.92
2018-02-17T04:28:10.589Z,984.98
2018-02-17T04:29:05.726Z,984.87
2018-02-17T04:30:05.903Z,984.90
2018-02-17T04:31:05.914Z,984.77
2018-02-17T04:32:05.523Z,984.71
2018-02-17T04:33:05.272Z,984.79
2018-02-17T04:34:05.533Z,984.77
2018-02-17T04:35:05.169Z,984.81
2018-02-17T04:36:05.944Z,984.81
2018-02-17T04:37:05.814Z,984.77
2018-02-17T04:38:05.121Z,984.81
2018-02-17T04:39:05.771Z,984.79
2018-02-17T04:40:05.814Z,984.95
2018-02-17T04:41:05.407Z,984.84
2018-02-17T04:42:05.152Z,984.90
2018-02-17T04:43:05.833Z,984.87
2018-02-17T04:44:05.878Z,984.93
2018-02-17T04:45:05.673Z,984.79
2018-02-17T04:46:05.330Z,984.90
2018-02-17T04:47:05.103Z,985.01
2018-02-17T04:48:05.493Z,984.82
2018-02-17T04:49:05.596Z,984.90
2018-02-17T04:50:05.668Z,984.90
2018-02-17T04:51:05.952Z,985.01
2018-02-17T04:52:05.676Z,984.92
2018-02-17T04:53:05.374Z,984.87
2018-02-17T04:54:05.859Z,984.84
2018-02-17T04:55:05.803Z,984.74
2018-02-17T04:56:05.861Z,984.71
2018-02-17T04:57:05.134Z,984.71
2018-02-17T04:58:05.317Z,984.74
2018-02-17T04:59:05.459Z,984.68
2018-02-17T05:00:05.636Z,984.74
2018-02-17T05:01:05.643Z,984.66
2018-02-17T05:02:05.227Z,984.63
2018-02-17T05:03:05.903Z,984.71
2018-02-17T05:04:05.984Z,984.60
2018-02-17T05:05:05.876Z,984.55
2018-02-17T05:06:05.630Z,984.63
2018-02-17T05:07:05.473Z,984.63
2018-02-17T05:08:05.634Z,984.66
2018-02-17T05:09:10.409Z,984.68
2018-02-17T05:10:05.625Z,984.54
2018-02-17T05:11:05.468Z,984.71
2018-02-17T05:12:10.497Z,984.63
2018-02-17T05:13:05.516Z,984.63
2018-02-17T05:14:05.974Z,984.54
2018-02-17T05:15:05.112Z,984.49
2018-02-17T05:16:05.310Z,984.63
2018-02-17T05:17:05.928Z,984.54
2018-02-17T05:18:04.986Z,984.57
2018-02-17T05:19:05.651Z,984.60
2018-02-17T05:20:05.730Z,984.55
2018-02-17T05:21:05.169Z,984.49
2018-02-17T05:22:05.071Z,984.49
2018-02-17T05:23:05.277Z,984.49
2018-02-17T05:24:05.860Z,984.55
2018-02-17T05:25:06.150Z,984.38
2018-02-17T05:26:05.534Z,984.52
2018-02-17T05:27:05.536Z,984.49
2018-02-17T05:28:05.573Z,984.38
2018-02-17T05:29:05.841Z,984.35
2018-02-17T05:30:05.804Z,984.35
2018-02-17T05:31:05.612Z,984.32
2018-02-17T05:32:10.889Z,984.52
2018-02-17T05:33:06.143Z,984.35
2018-02-17T05:34:05.116Z,984.19
2018-02-17T05:35:05.377Z,984.27
2018-02-17T05:36:05.449Z,984.13
2018-02-17T05:37:04.953Z,984.21
2018-02-17T05:38:05.875Z,984.24
2018-02-17T05:39:05.686Z,984.19
2018-02-17T05:40:05.858Z,984.16
2018-02-17T05:41:05.112Z,984.27
2018-02-17T05:42:05.271Z,984.18
2018-02-17T05:43:06.108Z,984.21
2018-02-17T05:44:05.226Z,984.16
2018-02-17T05:45:05.334Z,984.13
2018-02-17T05:46:06.048Z,984.18
2018-02-17T05:47:05.641Z,984.16
2018-02-17T05:48:05.800Z,984.24
2018-02-17T05:49:05.860Z,984.27
2018-02-17T05:50:05.024Z,984.24
2018-02-17T05:51:05.571Z,984.13
2018-02-17T05:52:05.109Z,984.29
2018-02-17T05:53:05.288Z,984.24
2018-02-17T05:54:05.325Z,984.10
2018-02-17T05:55:05.310Z,984.16
2018-02-17T05:56:05.738Z,984.13
2018-02-17T05:57:05.873Z,984.13
2018-02-17T05:58:06.196Z,983.99
2018-02-17T05:59:05.749Z,984.07
2018-02-17T06:00:05.416Z,984.07
2018-02-17T06:01:05.161Z,984.16
2018-02-17T06:02:05.312Z,984.13
2018-02-17T06:03:10.199Z,983.91
2018-02-17T06:04:05.627Z,984.18
2018-02-17T06:05:06.410Z,984.07
2018-02-17T06:06:05.259Z,984.02
2018-02-17T06:07:05.216Z,984.16
2018-02-17T06:08:06.005Z,984.16
2018-02-17T06:09:05.342Z,984.10
2018-02-17T06:10:05.376Z,984.18
2018-02-17T06:11:05.998Z,983.85
2018-02-17T06:12:05.725Z,984.15
2018-02-17T06:13:05.480Z,983.99
2018-02-17T06:14:05.112Z,983.99
2018-02-17T06:15:05.140Z,984.04
2018-02-17T06:16:05.019Z,983.91
2018-02-17T06:17:05.840Z,983.96
2018-02-17T06:18:05.705Z,983.85
2018-02-17T06:19:05.594Z,983.96
2018-02-17T06:20:05.466Z,983.93
2018-02-17T06:21:05.295Z,983.90
2018-02-17T06:22:05.845Z,983.99
2018-02-17T06:23:05.563Z,983.85
2018-02-17T06:24:05.681Z,983.74
2018-02-17T06:25:05.295Z,983.74
2018-02-17T06:26:05.024Z,983.96
2018-02-17T06:27:05.967Z,983.71
2018-02-17T06:28:05.196Z,983.85
2018-02-17T06:29:05.893Z,983.77
2018-02-17T06:30:05.657Z,983.85
2018-02-17T06:31:05.706Z,983.82
2018-02-17T06:32:05.478Z,983.82
2018-02-17T06:33:05.450Z,983.79
2018-02-17T06:34:05.201Z,983.77
2018-02-17T06:35:05.097Z,983.90
2018-02-17T06:36:05.774Z,983.71
2018-02-17T06:37:06.444Z,983.87
2018-02-17T06:38:05.490Z,983.82
2018-02-17T06:39:06.126Z,983.85
2018-02-17T06:40:05.525Z,983.90
2018-02-17T06:41:05.403Z,983.84
2018-02-17T06:42:05.913Z,983.71
2018-02-17T06:43:05.613Z,983.62
2018-02-17T06:44:05.298Z,983.65
2018-02-17T06:45:06.000Z,983.65
2018-02-17T06:46:05.464Z,983.51
2018-02-17T06:47:05.310Z,983.65
2018-02-17T06:48:05.942Z,983.48
2018-02-17T06:49:05.488Z,983.62
2018-02-17T06:50:05.378Z,983.48
2018-02-17T06:51:05.076Z,983.40
2018-02-17T06:52:04.982Z,983.37
2018-02-17T06:53:05.748Z,983.40
2018-02-17T06:54:05.781Z,983.37
2018-02-17T06:55:05.223Z,983.32
2018-02-17T06:56:06.035Z,983.32
2018-02-17T06:57:05.412Z,983.40
2018-02-17T06:58:05.265Z,983.40
2018-02-17T06:59:10.567Z,983.51
2018-02-17T07:00:05.417Z,983.51
2018-02-17T07:01:05.529Z,983.56
2018-02-17T07:02:05.100Z,983.51
2018-02-17T07:03:05.360Z,983.51
2018-02-17T07:04:05.290Z,983.56
2018-02-17T07:05:05.924Z,983.48
2018-02-17T07:06:05.215Z,983.48
2018-02-17T07:07:05.814Z,983.48
2018-02-17T07:08:05.735Z,983.56
2018-02-17T07:09:05.566Z,983.64
2018-02-17T07:10:05.243Z,983.37
2018-02-17T07:11:05.042Z,983.42
2018-02-17T07:12:05.751Z,983.36
2018-02-17T07:13:06.081Z,983.53
2018-02-17T07:14:05.328Z,983.53
2018-02-17T07:15:05.678Z,983.47
2018-02-17T07:16:05.634Z,983.29
2018-02-17T07:17:05.232Z,983.56
2018-02-17T07:18:05.802Z,983.53
2018-02-17T07:19:05.827Z,983.36
2018-02-17T07:20:05.971Z,983.58
2018-02-17T07:21:05.617Z,983.39
2018-02-17T07:22:05.133Z,983.61
2018-02-17T07:23:05.825Z,983.53
2018-02-17T07:24:05.543Z,983.47
2018-02-17T07:25:06.162Z,983.41
2018-02-17T07:26:05.130Z,983.44
2018-02-17T07:27:05.567Z,983.52
2018-02-17T07:28:05.357Z,983.55
2018-02-17T07:29:05.738Z,983.47
2018-02-17T07:30:06.829Z,983.55
2018-02-17T07:31:05.318Z,983.47
2018-02-17T07:32:05.225Z,983.49
2018-02-17T07:33:05.560Z,983.44
2018-02-17T07:34:05.493Z,983.35
2018-02-17T07:35:05.168Z,983.57
2018-02-17T07:36:05.748Z,983.55
2018-02-17T07:37:04.985Z,983.55
2018-02-17T07:38:05.588Z,983.46
2018-02-17T07:39:04.969Z,983.57
2018-02-17T07:40:05.357Z,983.38
2018-02-17T07:41:05.054Z,983.46
2018-02-17T07:42:05.690Z,983.35
2018-02-17T07:43:05.217Z,983.46
2018-02-17T07:44:05.195Z,983.33
2018-02-17T07:45:06.168Z,983.19
2018-02-17T07:46:05.206Z,983.27
2018-02-17T07:47:06.606Z,983.30
2018-02-17T07:48:05.156Z,983.37
2018-02-17T07:49:05.609Z,983.27
2018-02-17T07:50:05.775Z,983.27
2018-02-17T07:51:05.884Z,983.19
2018-02-17T07:52:05.619Z,983.30
2018-02-17T07:53:05.473Z,983.16
2018-02-17T07:54:05.331Z,983.24
2018-02-17T07:55:05.671Z,983.19
2018-02-17T07:56:05.086Z,983.13
2018-02-17T07:57:05.708Z,983.18
2018-02-17T07:58:05.878Z,983.10
2018-02-17T07:59:05.030Z,983.07
2018-02-17T08:00:05.519Z,982.99
2018-02-17T08:01:05.518Z,983.01
2018-02-17T08:02:05.270Z,983.10
2018-02-17T08:03:05.328Z,983.15
2018-02-17T08:04:06.054Z,982.96
2018-02-17T08:05:05.647Z,982.98
2018-02-17T08:06:05.470Z,982.82
2018-02-17T08:07:05.199Z,982.87
2018-02-17T08:08:05.219Z,982.79
2018-02-17T08:09:05.767Z,982.82
2018-02-17T08:10:05.523Z,982.74
2018-02-17T08:11:06.579Z,982.81
2018-02-17T08:12:05.130Z,982.71
2018-02-17T08:13:05.390Z,982.87
2018-02-17T08:14:05.465Z,982.81
2018-02-17T08:15:05.413Z,982.68
2018-02-17T08:16:05.895Z,982.65
2018-02-17T08:17:05.781Z,982.62
2018-02-17T08:18:06.017Z,982.65
2018-02-17T08:19:05.118Z,982.59
2018-02-17T08:20:05.315Z,982.57
2018-02-17T08:21:05.321Z,982.56
2018-02-17T08:22:05.292Z,982.68
2018-02-17T08:23:05.391Z,982.48
2018-02-17T08:24:05.539Z,982.45
2018-02-17T08:25:05.874Z,982.51
2018-02-17T08:26:05.948Z,982.31
2018-02-17T08:27:05.827Z,982.59
2018-02-17T08:28:05.412Z,982.45
2018-02-17T08:29:05.276Z,982.53
2018-02-17T08:30:05.297Z,982.42
2018-02-17T08:31:05.127Z,982.39
2018-02-17T08:32:05.706Z,982.39
2018-02-17T08:33:05.382Z,982.33
2018-02-17T08:34:05.880Z,982.42
2018-02-17T08:35:05.039Z,982.39
2018-02-17T08:36:05.824Z,982.33
2018-02-17T08:37:05.892Z,982.47
2018-02-17T08:38:05.886Z,982.22
2018-02-17T08:39:05.127Z,982.47
2018-02-17T08:40:05.674Z,982.30
2018-02-17T08:41:05.204Z,982.19
2018-02-17T08:42:06.025Z,982.24
2018-02-17T08:43:15.443Z,982.21
2018-02-17T08:44:05.250Z,982.32
2018-02-17T08:45:05.252Z,982.35
2018-02-17T08:46:05.056Z,982.29
2018-02-17T08:47:05.222Z,982.27
2018-02-17T08:48:05.167Z,982.13
2018-02-17T08:49:05.617Z,982.21
2018-02-17T08:50:05.420Z,982.40
2018-02-17T08:51:06.105Z,982.26
2018-02-17T08:52:05.561Z,982.29
2018-02-17T08:53:04.937Z,982.26
2018-02-17T08:54:05.898Z,982.34
2018-02-17T08:55:05.772Z,982.40
2018-02-17T08:56:05.690Z,982.37
2018-02-17T08:57:05.544Z,982.37
2018-02-17T08:58:05.912Z,982.39
2018-02-17T08:59:05.538Z,982.36
2018-02-17T09:00:05.269Z,982.34
2018-02-17T09:01:05.428Z,982.36
2018-02-17T09:02:05.996Z,982.33
2018-02-17T09:03:05.180Z,982.42
2018-02-17T09:04:05.749Z,982.44
2018-02-17T09:05:05.769Z,982.55
2018-02-17T09:06:05.511Z,982.52
2018-02-17T09:07:05.461Z,982.33
2018-02-17T09:08:05.450Z,982.44
2018-02-17T09:09:05.230Z,982.47
2018-02-17T09:10:05.299Z,982.35
2018-02-17T09:11:05.837Z,982.41
2018-02-17T09:12:05.683Z,982.49
2018-02-17T09:13:05.979Z,982.60
2018-02-17T09:14:05.857Z,982.68
2018-02-17T09:15:04.955Z,982.71
2018-02-17T09:16:05.543Z,982.71
2018-02-17T09:17:06.077Z,982.57
2018-02-17T09:18:05.877Z,982.68
2018-02-17T09:19:05.796Z,982.68
2018-02-17T09:20:05.496Z,982.68
2018-02-17T09:21:05.512Z,982.65
2018-02-17T09:22:05.256Z,982.68
2018-02-17T09:23:05.265Z,982.78
2018-02-17T09:24:05.870Z,982.65
2018-02-17T09:25:05.460Z,982.62
2018-02-17T09:26:06.091Z,982.73
2018-02-17T09:27:05.278Z,982.73
2018-02-17T09:28:05.624Z,982.67
2018-02-17T09:29:05.416Z,982.61
2018-02-17T09:30:05.574Z,982.91
2018-02-17T09:31:06.014Z,982.61
2018-02-17T09:32:10.081Z,982.61
2018-02-17T09:33:06.218Z,982.66
2018-02-17T09:34:10.627Z,982.69
2018-02-17T09:35:05.297Z,982.55
2018-02-17T09:36:05.403Z,982.52
2018-02-17T09:37:05.462Z,982.66
2018-02-17T09:38:05.249Z,982.74
2018-02-17T09:39:05.266Z,982.69
2018-02-17T09:40:05.593Z,982.58
2018-02-17T09:41:05.219Z,982.49
2018-02-17T09:42:05.265Z,982.82
2018-02-17T09:43:05.109Z,982.57
2018-02-17T09:44:05.173Z,982.63
2018-02-17T09:45:05.508Z,982.68
2018-02-17T09:46:06.644Z,982.71
2018-02-17T09:47:05.173Z,982.81
2018-02-17T09:48:05.649Z,982.68
2018-02-17T09:49:05.895Z,982.74
2018-02-17T09:50:05.502Z,982.81
2018-02-17T09:51:07.164Z,982.74
2018-02-17T09:52:05.189Z,982.78
2018-02-17T09:53:05.523Z,982.74
2018-02-17T09:54:05.456Z,982.68
2018-02-17T09:55:05.824Z,982.62
2018-02-17T09:56:05.529Z,982.81
2018-02-17T09:57:05.391Z,982.73
2018-02-17T09:58:06.007Z,982.68
2018-02-17T09:59:05.229Z,982.62
2018-02-17T10:00:05.157Z,982.73
2018-02-17T10:01:05.808Z,982.67
2018-02-17T10:02:05.446Z,982.56
2018-02-17T10:03:05.408Z,982.62
2018-02-17T10:04:05.246Z,982.53
2018-02-17T10:05:10.224Z,982.56
2018-02-17T10:06:05.047Z,982.50
2018-02-17T10:07:05.714Z,982.61
2018-02-17T10:08:05.741Z,982.47
2018-02-17T10:09:05.241Z,982.53
2018-02-17T10:10:05.767Z,982.53
2018-02-17T10:11:05.881Z,982.47
2018-02-17T10:12:09.975Z,982.50
2018-02-17T10:13:05.334Z,982.28
2018-02-17T10:14:05.579Z,982.39
2018-02-17T10:15:05.535Z,982.47
2018-02-17T10:16:05.814Z,982.39
2018-02-17T10:17:05.208Z,982.55
2018-02-17T10:18:05.988Z,982.30
2018-02-17T10:19:05.896Z,982.49
2018-02-17T10:20:05.948Z,982.38
2018-02-17T10:21:05.334Z,982.35
2018-02-17T10:22:06.052Z,982.30
2018-02-17T10:23:05.771Z,982.32
2018-02-17T10:24:05.392Z,982.43
2018-02-17T10:25:04.984Z,982.26
2018-02-17T10:26:10.522Z,982.18
2018-02-17T10:27:05.253Z,982.32
2018-02-17T10:28:05.883Z,982.26
2018-02-17T10:29:05.793Z,982.20
2018-02-17T10:30:05.599Z,982.34
2018-02-17T10:31:05.101Z,982.29
2018-02-17T10:32:05.637Z,982.31
2018-02-17T10:33:05.232Z,982.26
2018-02-17T10:34:05.404Z,982.17
2018-02-17T10:35:05.004Z,982.23
2018-02-17T10:36:05.276Z,982.08
2018-02-17T10:37:05.090Z,982.22
2018-02-17T10:38:05.782Z,982.28
2018-02-17T10:39:04.937Z,982.14
2018-02-17T10:40:05.457Z,982.22
2018-02-17T10:41:05.550Z,982.22
2018-02-17T10:42:05.302Z,982.27
2018-02-17T10:43:05.766Z,982.11
2018-02-17T10:44:05.583Z,982.08
2018-02-17T10:45:05.115Z,982.22
2018-02-17T10:46:05.740Z,982.13
2018-02-17T10:47:05.089Z,982.07
2018-02-17T10:48:05.534Z,982.02
2018-02-17T10:49:05.470Z,982.13
2018-02-17T10:50:05.205Z,981.99
2018-02-17T10:51:05.256Z,982.07
2018-02-17T10:52:05.683Z,982.18
2018-02-17T10:53:05.393Z,982.07
2018-02-17T10:54:05.828Z,981.96
2018-02-17T10:55:06.201Z,981.98
2018-02-17T10:56:05.381Z,981.93
2018-02-17T10:57:05.160Z,981.84
2018-02-17T10:58:05.597Z,981.81
2018-02-17T10:59:05.261Z,981.98
2018-02-17T11:00:05.334Z,981.90
2018-02-17T11:01:05.946Z,982.03
2018-02-17T11:02:05.605Z,981.98
2018-02-17T11:03:05.541Z,981.98
2018-02-17T11:04:05.770Z,981.89
2018-02-17T11:05:05.198Z,981.92
2018-02-17T11:06:05.829Z,981.81
2018-02-17T11:07:05.333Z,981.81
2018-02-17T11:08:05.885Z,981.97
2018-02-17T11:09:05.305Z,981.92
2018-02-17T11:10:05.568Z,981.92
2018-02-17T11:11:04.948Z,981.83
2018-02-17T11:12:05.793Z,981.83
2018-02-17T11:13:05.697Z,981.91
2018-02-17T11:14:05.525Z,981.91
2018-02-17T11:15:05.866Z,981.74
2018-02-17T11:16:05.450Z,981.83
2018-02-17T11:17:05.379Z,981.91
2018-02-17T11:18:05.321Z,981.85
2018-02-17T11:19:05.503Z,981.88
2018-02-17T11:20:05.345Z,981.74
2018-02-17T11:21:05.080Z,981.57
2018-02-17T11:22:05.522Z,981.82
2018-02-17T11:23:04.882Z,981.77
2018-02-17T11:24:05.878Z,981.80
2018-02-17T11:25:05.878Z,981.82
2018-02-17T11:26:05.015Z,981.77
2018-02-17T11:27:05.413Z,981.82
2018-02-17T11:28:05.315Z,981.74
2018-02-17T11:29:05.718Z,981.68
2018-02-17T11:30:04.972Z,981.77
2018-02-17T11:31:05.745Z,981.85
2018-02-17T11:32:05.197Z,981.85
2018-02-17T11:33:05.683Z,981.76
2018-02-17T11:34:05.236Z,981.82
2018-02-17T11:35:05.101Z,981.65
2018-02-17T11:36:05.654Z,981.55
2018-02-17T11:37:08.571Z,981.68
2018-02-17T11:38:05.694Z,981.62
2018-02-17T11:39:05.340Z,981.60
2018-02-17T11:40:05.714Z,981.65
2018-02-17T11:41:05.570Z,981.65
2018-02-17T11:42:04.995Z,981.65
2018-02-17T11:43:05.371Z,981.60
2018-02-17T11:44:04.967Z,981.71
2018-02-17T11:45:06.109Z,981.68
2018-02-17T11:46:05.926Z,981.65
2018-02-17T11:47:05.400Z,981.62
2018-02-17T11:48:05.493Z,981.65
2018-02-17T11:49:05.541Z,981.55
2018-02-17T11:50:04.958Z,981.59
2018-02-17T11:51:05.895Z,981.62
2018-02-17T11:52:05.850Z,981.46
2018-02-17T11:53:05.342Z,981.46
2018-02-17T11:54:09.954Z,981.43
2018-02-17T11:55:05.070Z,981.43
2018-02-17T11:56:05.356Z,981.54
2018-02-17T11:57:05.733Z,981.52
2018-02-17T11:58:05.576Z,981.35
2018-02-17T11:59:05.052Z,981.52
2018-02-17T12:00:05.308Z,981.46
2018-02-17T12:01:04.882Z,981.46
2018-02-17T12:02:05.873Z,981.35
2018-02-17T12:03:05.185Z,981.46
2018-02-17T12:04:05.394Z,981.37
2018-02-17T12:05:05.012Z,981.40
2018-02-17T12:06:05.404Z,981.35
2018-02-17T12:07:05.795Z,981.43
2018-02-17T12:08:05.602Z,981.43
2018-02-17T12:09:05.807Z,981.43
2018-02-17T12:10:05.779Z,981.32
2018-02-17T12:11:05.420Z,981.32
2018-02-17T12:12:04.937Z,981.18
2018-02-17T12:13:05.151Z,981.23
2018-02-17T12:14:05.724Z,981.31
2018-02-17T12:15:05.243Z,981.29
2018-02-17T12:16:05.145Z,981.20
2018-02-17T12:17:05.888Z,981.17
2018-02-17T12:18:05.717Z,981.26
2018-02-17T12:19:05.259Z,981.15
2018-02-17T12:20:05.801Z,981.15
2018-02-17T12:21:05.381Z,981.20
2018-02-17T12:22:05.184Z,981.14
2018-02-17T12:23:05.660Z,981.17
2018-02-17T12:24:05.778Z,981.17
2018-02-17T12:25:04.919Z,981.23
2018-02-17T12:26:05.496Z,981.09
2018-02-17T12:27:05.089Z,981.17
2018-02-17T12:28:05.749Z,981.25